Station: Badgingarra  

  Atmospheric Gas Attenuation - ITU Rec 676-11   ----------------- dB/100km -----------------
Date Time Temp RH % AH g/m3 Dew Point Wind Direction Speed kph Gust kph Barometer mB Rainfall Since 9am 24GHz 47GHz 76GHz 122GHz 134GHz 241GHz
08/05 12:10 21.7 39 7.44 7.1 26 33 1013.1 0 16.8 22.1 32.0 83.7 75.5 259.2
08/05 12:00 20.8 41 7.42 7.1 24 33 1013.1 0 16.8 22.2 32.3 84.4 76.1 261.3
08/05 11:50 21.2 41 7.6 7.4 33 37 1013.1 0 17.1 22.4 32.7 85.7 77.8 267.3
08/05 11:40 21 42 7.69 7.6 26 32 1013.1 0 17.3 22.6 33.1 86.7 79.1 271.6
08/05 11:30 20.7 42 7.56 7.3 24 37 1013.1 0 17.1 22.5 32.8 85.8 77.8 267.3
08/05 11:20 20.4 43 7.61 7.4 28 35 1013.1 0 17.2 22.6 33.1 86.6 78.7 270.3
08/05 11:10 20.1 43 7.47 7.4 28 32 1013.1 0 16.9 22.5 32.7 85.6 77.4 265.6
08/05 11:00 19.6 45 7.6 7.4 28 37 1013.1 0 17.2 22.8 33.4 87.4 79.4 272.6
08/05 10:50 19.4 44 7.34 7.1 30 35 1013.1 0 16.7 22.5 32.5 85.1 76.5 262.6
08/05 10:40 19.2 46 7.58 7.3 32 35 1013.1 0 17.2 22.9 33.5 87.6 79.5 273.1
08/05 10:30 19 47 7.66 7.4 32 39 1013.1 0 17.4 23.0 33.8 88.6 80.7 277.1
08/05 10:20 18.8 47 7.57 7.2 28 32 1013.1 0 17.2 23.0 33.6 88.0 79.8 274.1
08/05 10:10 18.7 46 7.36 7.1 24 30 1013.1 0 16.7 22.7 32.9 86.0 77.4 265.7
08/05 10:00 18.3 49 7.66 7.4 30 35 1013.1 0 17.4 23.2 34.1 89.4 81.4 279.5
08/05 09:50 17.7 50 7.54 7.1 28 30 1013.1 0 17.2 23.2 33.9 88.9 80.6 276.6
08/05 09:40 17.6 51 7.65 7.3 26 32 1013.1 0 17.4 23.4 34.4 90.1 82.0 281.6
08/05 09:30 17.1 53 7.71 7.5 30 43 1013.1 0 17.5 23.6 34.8 91.2 83.3 285.9
08/05 09:20 16.6 53 7.49 7 33 37 1013.1 0 17.1 23.4 34.2 89.6 81.1 278.2
08/05 09:10 16.2 54 7.45 6.9 28 35 1013.1 0 17.0 23.4 34.2 89.6 81.0 277.9
08/05 09:00 15.9 56 7.58 7.1 32 43 1013.1 0 17.3 23.7 34.9 91.3 82.9 284.6
08/05 08:50 15.4 57 7.49 6.9 33 39 1013.1 0 17.2 23.7 34.7 90.9 82.3 282.4
08/05 08:40 15.1 59 7.61 7.1 28 32 1013.1 0 17.4 24.0 35.3 92.5 84.1 288.7
08/05 08:30 14.5 60 7.46 6.8 30 41 1013.1 0 17.1 23.9 35.0 91.7 82.9 284.3
08/05 08:20 14 62 7.48 6.8 30 32 1013.1 0 17.2 24.1 35.3 92.5 83.7 287.0
08/05 08:10 13.6 63 7.41 6.7 28 32 1013.1 0 17.1 24.1 35.2 92.2 83.2 285.3
08/05 08:00 13.2 65 7.46 6.8 28 37 1013.1 0 17.2 24.2 35.6 93.2 84.3 289.0
08/05 07:50 12.8 66 7.39 6.6 30 33 1013.1 0 17.1 24.2 35.5 92.9 83.8 287.3
08/05 07:40 12.5 67 7.37 6.5 26 32 1013.1 0 17.0 24.3 35.5 93.1 83.9 287.5
08/05 07:30 12.2 68 7.34 6.5 26 33 1013.1 0 17.0 24.3 35.6 93.1 83.8 287.2
08/05 07:20 11.9 67 7.1 6.1 26 30 1013.1 0 16.5 24.0 34.8 91.0 81.1 277.5
08/05 07:10 11.7 69 7.22 6.2 22 26 1013.1 0 16.7 24.3 35.3 92.4 82.8 283.6
08/05 07:00 11.8 69 7.26 6.3 26 35 1013.1 0 16.8 24.3 35.4 92.7 83.2 285.1
08/05 06:50 11.7 69 7.22 6.2 28 30 1013.1 0 16.7 24.3 35.3 92.4 82.8 283.6
08/05 06:40 11.8 68 7.16 6.1 30 35 1013.1 0 16.6 24.1 35.0 91.7 81.9 280.6
08/05 06:30 11.9 68 7.2 6.2 28 35 1013.1 0 16.7 24.2 35.1 92.0 82.3 282.0
08/05 06:20 11.9 67 7.1 6.1 28 32 1013.1 0 16.5 24.0 34.8 91.0 81.1 277.5
08/05 06:10 11.9 66 6.99 5.9 28 33 1013.1 0 16.2 23.9 34.3 89.8 79.7 272.6
08/05 06:00 12.2 67 7.23 6.3 30 39 1013.1 0 16.7 24.2 35.1 92.0 82.4 282.3
08/05 05:50 12.2 66 7.12 6 28 37 1013.1 0 16.5 24.0 34.7 90.8 81.0 277.4
08/05 05:40 12.3 66 7.17 6.1 28 33 1013.1 0 16.6 24.0 34.9 91.2 81.5 279.2
08/05 05:30 12.2 66 7.12 6 28 37 1013.1 0 16.5 24.0 34.7 90.8 81.0 277.4
08/05 05:20 12.3 66 7.17 6.1 24 30 1013.1 0 16.6 24.0 34.9 91.2 81.5 279.2
08/05 05:10 12.5 65 7.15 6.1 28 33 1013.1 0 16.6 23.9 34.7 90.8 81.1 277.6
08/05 05:00 12.6 64 7.08 6 30 39 1013.1 0 16.4 23.8 34.4 90.0 80.1 274.2
08/05 04:50 12.8 63 7.06 5.9 32 37 1013.1 0 16.3 23.7 34.2 89.5 79.6 272.6
08/05 04:40 12.8 63 7.06 5.9 28 32 1013.1 0 16.3 23.7 34.2 89.5 79.6 272.6
08/05 04:30 12.9 63 7.1 6 28 39 1013.1 0 16.4 23.8 34.3 89.8 80.0 274.0
08/05 04:20 13 62 7.03 5.9 26 32 1013.1 0 16.3 23.6 34.0 89.0 79.0 270.6
08/05 04:10 13.2 61 7 5.8 28 35 1013.1 0 16.2 23.5 33.8 88.5 78.5 268.6
08/05 04:00 13.4 61 7.09 6 28 35 1013.1 0 16.4 23.6 34.1 89.2 79.4 271.9
08/05 03:50 13.4 60 6.98 5.8 26 32 1013.1 0 16.2 23.4 33.7 88.0 78.0 267.1
08/05 03:40 13.4 60 6.98 5.8 26 30 1013.1 0 16.2 23.4 33.7 88.0 78.0 267.1
08/05 03:30 13.3 61 7.05 5.9 26 33 1013.1 0 16.3 23.6 34.0 88.9 79.0 270.5
08/05 03:20 13.5 60 7.02 5.9 28 30 1013.1 0 16.2 23.5 33.8 88.3 78.4 268.5
08/05 03:10 13.3 60 6.93 5.7 30 37 1013.1 0 16.1 23.4 33.5 87.6 77.5 265.2
08/05 03:00 13.4 60 6.98 5.8 26 33 1013.1 0 16.2 23.4 33.7 88.0 78.0 267.1
08/05 02:50 13.7 59 6.99 5.8 26 33 1013.1 0 16.2 23.4 33.6 87.8 77.9 266.5
08/05 02:40 13.6 58 6.83 5.5 22 32 1013.1 0 15.8 23.2 33.0 86.3 76.0 259.9
08/05 02:30 13.8 58 6.91 5.7 26 35 1013.1 0 16.0 23.2 33.2 86.9 76.8 262.7
08/05 02:20 13.9 57 6.83 5.7 24 30 1013.1 0 15.8 23.1 32.9 86.0 75.7 258.9
08/05 02:10 13.7 58 6.87 5.6 20 28 1013.1 0 15.9 23.2 33.1 86.6 76.4 261.3
08/05 02:00 13.8 58 6.91 5.7 20 32 1013.1 0 16.0 23.2 33.2 86.9 76.8 262.7
08/05 01:50 13.9 57 6.83 5.7 22 24 1013.1 0 15.8 23.1 32.9 86.0 75.7 258.9
08/05 01:40 13.9 57 6.83 5.7 22 28 1013.1 0 15.8 23.1 32.9 86.0 75.7 258.9
08/05 01:30 13.8 58 6.91 5.7 22 30 1013.1 0 16.0 23.2 33.2 86.9 76.8 262.7
08/05 01:20 14 57 6.88 5.6 20 24 1013.1 0 15.9 23.1 33.0 86.4 76.2 260.7
08/05 01:10 14.3 56 6.88 5.6 19 22 1013.1 0 15.9 23.1 32.9 86.1 75.9 259.7
08/05 01:00 14.9 54 6.88 5.7 26 37 1013.1 0 15.9 22.9 32.7 85.4 75.3 257.8
08/05 00:50 15.1 53 6.84 5.6 30 37 1013.1 0 15.8 22.8 32.4 84.8 74.7 255.5
08/05 00:40 15.2 54 7.01 5.9 26 32 1013.1 0 16.1 23.0 33.0 86.4 76.6 262.4
08/05 00:30 14.4 56 6.92 5.7 24 32 1013.1 0 16.0 23.1 33.0 86.3 76.3 261.1
08/05 00:20 14.3 56 6.88 5.6 24 30 1013.1 0 15.9 23.1 32.9 86.1 75.9 259.7
08/05 00:10 14.3 56 6.88 5.6 24 28 1013.1 0 15.9 23.1 32.9 86.1 75.9 259.7
08/05 00:00 14 57 6.88 5.6 20 26 1013.1 0 15.9 23.1 33.0 86.4 76.2 260.7
07/05 23:50 14.4 56 6.92 5.7 22 26 1013.1 0 16.0 23.1 33.0 86.3 76.3 261.1
07/05 23:40 14.5 56 6.97 5.8 22 26 1013.1 0 16.1 23.2 33.2 86.7 76.8 263.0
07/05 23:30 14.6 55 6.88 5.7 24 32 1013.1 0 15.9 23.0 32.8 85.7 75.6 258.8
07/05 23:20 14.8 55 6.97 5.8 26 33 1013.1 0 16.1 23.1 33.0 86.4 76.5 262.0
07/05 23:10 14.8 54 6.84 5.6 24 28 1013.1 0 15.8 22.9 32.6 85.1 74.9 256.4
07/05 23:00 15.1 54 6.97 5.9 24 32 1013.1 0 16.1 23.0 32.9 86.1 76.2 261.0
07/05 22:50 15.3 52 6.79 5.7 26 33 1013.1 0 15.7 22.7 32.2 84.1 73.9 252.7
07/05 22:40 15.5 52 6.87 5.7 32 35 1013.1 0 15.8 22.7 32.4 84.7 74.6 255.5
07/05 22:30 15.6 51 6.78 5.5 26 37 1013.1 0 15.6 22.6 32.0 83.7 73.5 251.3
07/05 22:20 15.9 50 6.77 5.5 24 32 1013.1 0 15.6 22.5 31.9 83.3 73.1 250.0
07/05 22:10 16 50 6.81 5.6 28 35 1013.1 0 15.7 22.5 32.0 83.6 73.5 251.4
07/05 22:00 16 50 6.81 5.6 28 35 1013.1 0 15.7 22.5 32.0 83.6 73.5 251.4
07/05 21:50 16 50 6.81 5.6 26 33 1013.1 0 15.7 22.5 32.0 83.6 73.5 251.4
07/05 21:40 15.9 50 6.77 5.5 28 32 1013.1 0 15.6 22.5 31.9 83.3 73.1 250.0
07/05 21:30 16 50 6.81 5.6 24 33 1013.1 0 15.7 22.5 32.0 83.6 73.5 251.4
07/05 21:20 16 50 6.81 5.6 22 30 1013.1 0 15.7 22.5 32.0 83.6 73.5 251.4
07/05 21:10 16 50 6.81 5.6 20 24 1013.1 0 15.7 22.5 32.0 83.6 73.5 251.4
07/05 21:00 16.2 50 6.89 5.8 20 32 1013.1 0 15.8 22.6 32.2 84.1 74.2 254.1
07/05 20:50 16.4 48 6.7 5.6 22 24 1013.1 0 15.4 22.3 31.4 82.1 71.8 245.5
07/05 20:40 16.7 48 6.82 5.6 20 28 1013.1 0 15.7 22.4 31.7 82.9 72.9 249.6
07/05 20:30 16.9 48 6.9 5.8 24 32 1013.1 0 15.8 22.4 31.9 83.5 73.7 252.3
07/05 20:20 17.1 47 6.84 5.7 22 32 1013.1 0 15.7 22.3 31.7 82.7 72.8 249.2
07/05 20:10 17.2 47 6.88 5.8 20 24 1013.1 0 15.8 22.3 31.8 83.0 73.2 250.6
07/05 20:00 17.2 47 6.88 5.8 17 26 1013.1 0 15.8 22.3 31.8 83.0 73.2 250.6
07/05 19:50 17.2 47 6.88 5.8 17 19 1013.1 0 15.8 22.3 31.8 83.0 73.2 250.6
07/05 19:40 17.6 46 6.9 5.8 20 22 1013.1 0 15.8 22.3 31.7 82.8 73.1 250.2

Last Refresh: 08-May-2026 13:49:40

Bureau of Meteorology